KLFT/LFT METAR and TAF weather

Enter ICAO airport designator
Station Type Date Time Source
KLFT METAR 2018/12/19 08:53 UTC NOAA

KLFT 190853Z AUTO 09003KT 10SM CLR 11/10 A2998 RMK AO2 SLP152 T01110100 56016


Station Type Date Time Source
KLFT Decoded METAR 2018/12/19 08:53 UTC NOAA

LAFAYETTE REGIONAL AIRPORT, LA, United States (KLFT) 30-12N 092-00W 11M
Dec 19, 2018 - 03:53 AM EST / 2018.12.19 0853 UTC
Wind: from the E (090 degrees) at 3 MPH (3 KT):0
Visibility: 10 mile(s):0
Sky conditions: clear
Temperature: 52.0 F (11.1 C)
Dew Point: 50.0 F (10.0 C)
Relative Humidity: 92%
Pressure (altimeter): 29.98 in. Hg (1015 hPa)
Pressure tendency: 0.05 inches (1.6 hPa) lower than three hours ago
ob: KLFT 190853Z AUTO 09003KT 10SM CLR 11/10 A2998 RMK AO2 SLP152 T01110100 56016
cycle: 9

Station Type Date Time Source
KLFT TAF 2018/12/19 06:27 UTC NOAA

TAF KLFT 190524Z 1906/2006 VRB03KT P6SM BKN250
TEMPO 1912/1915 4SM -SHRA OVC025
FM191700 VRB06KT 6SM -SHRA OVC025 PROB30 1917/1921 2SM TS OVC010CB
FM192100 VRB03KT 6SM SHRA OVC008
FM200300 VRB04KT 4SM BR BKN003


Example: see airport list